sensor_id;sensor_type;location;lat;lon;timestamp;pressure;altitude;pressure_sealevel;temperature;humidity
79372;BME280;68914;51.262;6.802;2023-05-07T00:00:32;101319.31;;;18.76;65.05
79372;BME280;68914;51.262;6.802;2023-05-07T00:01:34;101323.06;;;18.75;64.81
79372;BME280;68914;51.262;6.802;2023-05-07T00:02:35;101312.63;;;18.73;65.31
79372;BME280;68914;51.262;6.802;2023-05-07T00:03:36;101322.59;;;18.78;65.38
79372;BME280;68914;51.262;6.802;2023-05-07T00:04:36;101320.38;;;18.75;65.00
79372;BME280;68914;51.262;6.802;2023-05-07T00:05:39;101320.38;;;18.75;64.83
79372;BME280;68914;51.262;6.802;2023-05-07T00:06:40;101318.53;;;18.75;64.87
79372;BME280;68914;51.262;6.802;2023-05-07T00:07:40;101321.19;;;18.75;65.04
79372;BME280;68914;51.262;6.802;2023-05-07T00:08:41;101315.50;;;18.72;65.26
79372;BME280;68914;51.262;6.802;2023-05-07T00:09:42;101311.56;;;18.74;64.91
79372;BME280;68914;51.262;6.802;2023-05-07T00:10:42;101317.38;;;18.71;65.35
79372;BME280;68914;51.262;6.802;2023-05-07T00:11:43;101319.47;;;18.69;65.51
79372;BME280;68914;51.262;6.802;2023-05-07T00:12:44;101316.84;;;18.57;65.53
79372;BME280;68914;51.262;6.802;2023-05-07T00:13:45;101315.31;;;18.61;65.56
79372;BME280;68914;51.262;6.802;2023-05-07T00:14:45;101316.94;;;18.62;65.80
79372;BME280;68914;51.262;6.802;2023-05-07T00:15:46;101313.59;;;18.55;65.88
79372;BME280;68914;51.262;6.802;2023-05-07T00:16:46;101310.56;;;18.52;66.18
79372;BME280;68914;51.262;6.802;2023-05-07T00:17:47;101300.22;;;18.55;65.90
79372;BME280;68914;51.262;6.802;2023-05-07T00:18:48;101304.03;;;18.59;65.71
79372;BME280;68914;51.262;6.802;2023-05-07T00:19:48;101313.66;;;18.60;66.02
79372;BME280;68914;51.262;6.802;2023-05-07T00:20:49;101308.50;;;18.54;65.92
79372;BME280;68914;51.262;6.802;2023-05-07T00:21:50;101299.41;;;18.55;66.00
79372;BME280;68914;51.262;6.802;2023-05-07T00:22:51;101313.09;;;18.58;65.82
79372;BME280;68914;51.262;6.802;2023-05-07T00:23:52;101310.56;;;18.52;66.29
79372;BME280;68914;51.262;6.802;2023-05-07T00:24:53;101310.22;;;18.48;66.13
79372;BME280;68914;51.262;6.802;2023-05-07T00:25:56;101310.94;;;18.43;66.33
79372;BME280;68914;51.262;6.802;2023-05-07T00:26:56;101306.41;;;18.44;66.15
79372;BME280;68914;51.262;6.802;2023-05-07T00:27:58;101312.34;;;18.46;66.17
79372;BME280;68914;51.262;6.802;2023-05-07T00:29:03;101307.00;;;18.46;66.19
79372;BME280;68914;51.262;6.802;2023-05-07T00:30:05;101309.75;;;18.51;65.96
79372;BME280;68914;51.262;6.802;2023-05-07T00:31:09;101311.63;;;18.51;65.73
79372;BME280;68914;51.262;6.802;2023-05-07T00:32:09;101301.63;;;18.58;65.54
79372;BME280;68914;51.262;6.802;2023-05-07T00:33:10;101309.25;;;18.66;65.70
79372;BME280;68914;51.262;6.802;2023-05-07T00:34:11;101308.66;;;18.64;65.43
79372;BME280;68914;51.262;6.802;2023-05-07T00:35:11;101314.97;;;18.58;65.87
79372;BME280;68914;51.262;6.802;2023-05-07T00:36:12;101309.28;;;18.54;65.85
79372;BME280;68914;51.262;6.802;2023-05-07T00:37:13;101311.03;;;18.49;66.28
79372;BME280;68914;51.262;6.802;2023-05-07T00:38:14;101305.47;;;18.50;65.92
79372;BME280;68914;51.262;6.802;2023-05-07T00:39:15;101308.72;;;18.52;65.93
79372;BME280;68914;51.262;6.802;2023-05-07T00:40:15;101310.81;;;18.50;65.94
79372;BME280;68914;51.262;6.802;2023-05-07T00:41:16;101309.28;;;18.54;65.55
79372;BME280;68914;51.262;6.802;2023-05-07T00:42:17;101305.84;;;18.42;65.71
79372;BME280;68914;51.262;6.802;2023-05-07T00:43:18;101307.00;;;18.46;66.08
79372;BME280;68914;51.262;6.802;2023-05-07T00:44:19;101298.53;;;18.49;65.82
79372;BME280;68914;51.262;6.802;2023-05-07T00:45:19;101308.63;;;18.47;66.01
79372;BME280;68914;51.262;6.802;2023-05-07T00:46:21;101304.34;;;18.46;65.83
79372;BME280;68914;51.262;6.802;2023-05-07T00:47:21;101305.28;;;18.40;66.01
79372;BME280;68914;51.262;6.802;2023-05-07T00:48:22;101297.25;;;18.40;65.88
79372;BME280;68914;51.262;6.802;2023-05-07T00:49:35;101297.34;;;18.45;65.84
79372;BME280;68914;51.262;6.802;2023-05-07T00:50:37;101296.78;;;18.43;65.87
79372;BME280;68914;51.262;6.802;2023-05-07T00:51:38;101294.69;;;18.45;65.90
79372;BME280;68914;51.262;6.802;2023-05-07T00:52:39;101298.41;;;18.44;66.03
79372;BME280;68914;51.262;6.802;2023-05-07T00:53:39;101302.13;;;18.43;65.99
79372;BME280;68914;51.262;6.802;2023-05-07T00:54:41;101301.78;;;18.39;66.23
79372;BME280;68914;51.262;6.802;2023-05-07T00:55:42;101303.41;;;18.40;66.05
79372;BME280;68914;51.262;6.802;2023-05-07T00:56:42;101302.38;;;18.41;66.14
79372;BME280;68914;51.262;6.802;2023-05-07T00:57:43;101303.91;;;18.37;66.37
79372;BME280;68914;51.262;6.802;2023-05-07T00:58:44;101303.41;;;18.40;66.29
79372;BME280;68914;51.262;6.802;2023-05-07T00:59:45;101302.03;;;18.38;66.37
79372;BME280;68914;51.262;6.802;2023-05-07T01:00:46;101301.03;;;18.27;66.65
79372;BME280;68914;51.262;6.802;2023-05-07T01:01:47;101296.03;;;18.31;66.46
79372;BME280;68914;51.262;6.802;2023-05-07T01:02:48;101298.69;;;18.31;66.71
79372;BME280;68914;51.262;6.802;2023-05-07T01:03:48;101291.16;;;18.28;66.67
79372;BME280;68914;51.262;6.802;2023-05-07T01:04:49;101289.50;;;18.38;66.29
79372;BME280;68914;51.262;6.802;2023-05-07T01:05:50;101289.16;;;18.35;66.33
79372;BME280;68914;51.262;6.802;2023-05-07T01:06:54;101297.25;;;18.40;66.29
79372;BME280;68914;51.262;6.802;2023-05-07T01:07:56;101292.09;;;18.33;66.40
79372;BME280;68914;51.262;6.802;2023-05-07T01:08:58;101299.72;;;18.41;66.12
79372;BME280;68914;51.262;6.802;2023-05-07T01:10:00;101302.22;;;18.48;65.90
79372;BME280;68914;51.262;6.802;2023-05-07T01:11:02;101297.94;;;18.47;65.96
79372;BME280;68914;51.262;6.802;2023-05-07T01:12:04;101300.84;;;18.46;66.31
79372;BME280;68914;51.262;6.802;2023-05-07T01:13:05;101296.00;;;18.42;66.17
79372;BME280;68914;51.262;6.802;2023-05-07T01:14:07;101299.47;;;18.43;66.34
79372;BME280;68914;51.262;6.802;2023-05-07T01:15:09;101302.41;;;18.30;66.69
79372;BME280;68914;51.262;6.802;2023-05-07T01:16:10;101301.28;;;18.26;66.80
79372;BME280;68914;51.262;6.802;2023-05-07T01:17:11;101303.69;;;18.27;67.02
79372;BME280;68914;51.262;6.802;2023-05-07T01:18:13;101296.97;;;18.13;67.32
79372;BME280;68914;51.262;6.802;2023-05-07T01:19:17;101284.66;;;18.24;67.00
79372;BME280;68914;51.262;6.802;2023-05-07T01:20:18;101300.13;;;18.22;66.97
79372;BME280;68914;51.262;6.802;2023-05-07T01:21:25;101297.13;;;18.06;67.77
79372;BME280;68914;51.262;6.802;2023-05-07T01:22:36;101300.38;;;18.08;67.94
79372;BME280;68914;51.262;6.802;2023-05-07T01:23:38;101297.00;;;18.01;67.58
79372;BME280;68914;51.262;6.802;2023-05-07T01:24:41;101292.72;;;18.00;67.87
79372;BME280;68914;51.262;6.802;2023-05-07T01:25:42;101294.69;;;18.05;67.73
79372;BME280;68914;51.262;6.802;2023-05-07T01:26:44;101292.00;;;18.05;67.73
79372;BME280;68914;51.262;6.802;2023-05-07T01:27:47;101298.66;;;18.02;68.11
79372;BME280;68914;51.262;6.802;2023-05-07T01:28:48;101295.50;;;18.05;67.56
79372;BME280;68914;51.262;6.802;2023-05-07T01:29:48;101300.81;;;18.05;67.56
79372;BME280;68914;51.262;6.802;2023-05-07T01:31:00;101292.59;;;18.07;67.50
79372;BME280;68914;51.262;6.802;2023-05-07T01:32:02;101294.31;;;18.13;67.11
79372;BME280;68914;51.262;6.802;2023-05-07T01:33:07;101300.16;;;18.10;67.28
79372;BME280;68914;51.262;6.802;2023-05-07T01:34:11;101290.84;;;18.12;67.35
79372;BME280;68914;51.262;6.802;2023-05-07T01:35:18;101293.97;;;18.09;67.37
79372;BME280;68914;51.262;6.802;2023-05-07T01:36:21;101286.56;;;18.11;67.40
79372;BME280;68914;51.262;6.802;2023-05-07T01:37:23;101291.31;;;18.09;67.21
79372;BME280;68914;51.262;6.802;2023-05-07T01:38:25;101292.34;;;18.08;67.39
79372;BME280;68914;51.262;6.802;2023-05-07T01:39:28;101290.84;;;18.12;67.34
79372;BME280;68914;51.262;6.802;2023-05-07T01:40:29;101290.84;;;18.12;67.30
79372;BME280;68914;51.262;6.802;2023-05-07T01:41:30;101291.81;;;18.06;67.31
79372;BME280;68914;51.262;6.802;2023-05-07T01:42:31;101296.53;;;18.04;67.55
79372;BME280;68914;51.262;6.802;2023-05-07T01:43:33;101284.72;;;18.00;67.63
79372;BME280;68914;51.262;6.802;2023-05-07T01:44:33;101285.53;;;18.01;67.40
79372;BME280;68914;51.262;6.802;2023-05-07T01:45:34;101286.81;;;17.98;67.80
79372;BME280;68914;51.262;6.802;2023-05-07T01:46:35;101279.03;;;17.97;67.78
79372;BME280;68914;51.262;6.802;2023-05-07T01:47:36;101278.84;;;17.86;68.06
79372;BME280;68914;51.262;6.802;2023-05-07T01:48:37;101279.19;;;17.90;68.13
79372;BME280;68914;51.262;6.802;2023-05-07T01:49:39;101284.03;;;17.93;67.81
79372;BME280;68914;51.262;6.802;2023-05-07T01:50:43;101285.78;;;17.99;67.69
79372;BME280;68914;51.262;6.802;2023-05-07T01:51:44;101284.50;;;18.02;67.53
79372;BME280;68914;51.262;6.802;2023-05-07T01:52:46;101283.66;;;18.01;67.43
79372;BME280;68914;51.262;6.802;2023-05-07T01:53:47;101282.84;;;18.01;67.33
79372;BME280;68914;51.262;6.802;2023-05-07T01:54:51;101282.84;;;18.01;67.22
79372;BME280;68914;51.262;6.802;2023-05-07T01:55:52;101284.50;;;18.02;67.20
79372;BME280;68914;51.262;6.802;2023-05-07T01:56:56;101282.84;;;18.01;67.41
79372;BME280;68914;51.262;6.802;2023-05-07T01:57:57;101287.28;;;17.95;67.38
79372;BME280;68914;51.262;6.802;2023-05-07T01:58:58;101282.41;;;17.92;67.52
79372;BME280;68914;51.262;6.802;2023-05-07T01:59:58;101281.84;;;17.90;67.54
79372;BME280;68914;51.262;6.802;2023-05-07T02:00:59;101268.97;;;17.87;67.58
79372;BME280;68914;51.262;6.802;2023-05-07T02:02:00;101281.59;;;17.91;67.57
79372;BME280;68914;51.262;6.802;2023-05-07T02:03:01;101285.53;;;17.89;67.58
79372;BME280;68914;51.262;6.802;2023-05-07T02:04:10;101279.88;;;17.85;67.75
79372;BME280;68914;51.262;6.802;2023-05-07T02:05:11;101282.53;;;17.85;67.60
79372;BME280;68914;51.262;6.802;2023-05-07T02:06:12;101277.69;;;17.82;67.59
79372;BME280;68914;51.262;6.802;2023-05-07T02:07:14;101284.03;;;17.81;67.37
79372;BME280;68914;51.262;6.802;2023-05-07T02:08:14;101275.84;;;17.83;67.40
79372;BME280;68914;51.262;6.802;2023-05-07T02:09:18;101275.25;;;17.81;67.68
79372;BME280;68914;51.262;6.802;2023-05-07T02:10:19;101277.56;;;17.77;67.47
79372;BME280;68914;51.262;6.802;2023-05-07T02:11:23;101275.81;;;17.71;67.65
79372;BME280;68914;51.262;6.802;2023-05-07T02:12:23;101282.31;;;17.63;67.91
79372;BME280;68914;51.262;6.802;2023-05-07T02:13:26;101275.47;;;17.56;68.25
79372;BME280;68914;51.262;6.802;2023-05-07T02:14:27;101280.69;;;17.62;67.90
79372;BME280;68914;51.262;6.802;2023-05-07T02:15:28;101287.53;;;17.58;67.85
79372;BME280;68914;51.262;6.802;2023-05-07T02:16:29;101288.09;;;17.60;67.90
79372;BME280;68914;51.262;6.802;2023-05-07T02:17:30;101282.19;;;17.58;67.61
79372;BME280;68914;51.262;6.802;2023-05-07T02:18:32;101281.84;;;17.55;68.08
79372;BME280;68914;51.262;6.802;2023-05-07T02:19:33;101279.03;;;17.50;68.07
79372;BME280;68914;51.262;6.802;2023-05-07T02:20:33;101273.03;;;17.54;67.93
79372;BME280;68914;51.262;6.802;2023-05-07T02:21:34;101273.97;;;17.48;67.95
79372;BME280;68914;51.262;6.802;2023-05-07T02:22:34;101281.72;;;17.50;67.72
79372;BME280;68914;51.262;6.802;2023-05-07T02:23:35;101278.25;;;17.49;68.04
79372;BME280;68914;51.262;6.802;2023-05-07T02:24:36;101275.56;;;17.49;67.93
79372;BME280;68914;51.262;6.802;2023-05-07T02:25:36;101274.31;;;17.52;67.93
79372;BME280;68914;51.262;6.802;2023-05-07T02:26:37;101277.88;;;17.45;68.01
79372;BME280;68914;51.262;6.802;2023-05-07T02:27:38;101281.38;;;17.46;68.21
79372;BME280;68914;51.262;6.802;2023-05-07T02:28:39;101278.81;;;17.39;68.27
79372;BME280;68914;51.262;6.802;2023-05-07T02:29:40;101285.22;;;17.38;68.27
79372;BME280;68914;51.262;6.802;2023-05-07T02:30:41;101279.97;;;17.32;68.57
79372;BME280;68914;51.262;6.802;2023-05-07T02:31:42;101280.34;;;17.35;68.41
79372;BME280;68914;51.262;6.802;2023-05-07T02:32:43;101283.09;;;17.40;68.12
79372;BME280;68914;51.262;6.802;2023-05-07T02:33:43;101282.19;;;17.47;67.86
79372;BME280;68914;51.262;6.802;2023-05-07T02:34:46;101279.03;;;17.38;68.23
79372;BME280;68914;51.262;6.802;2023-05-07T02:35:46;101273.38;;;17.34;68.23
79372;BME280;68914;51.262;6.802;2023-05-07T02:36:49;101279.63;;;17.40;67.94
79372;BME280;68914;51.262;6.802;2023-05-07T02:37:53;101277.88;;;17.45;68.11
79372;BME280;68914;51.262;6.802;2023-05-07T02:38:54;101274.19;;;17.47;67.99
79372;BME280;68914;51.262;6.802;2023-05-07T02:39:54;101282.06;;;17.41;68.15
79372;BME280;68914;51.262;6.802;2023-05-07T02:40:55;101275.22;;;17.34;68.17
79372;BME280;68914;51.262;6.802;2023-05-07T02:41:56;101275.22;;;17.34;68.37
79372;BME280;68914;51.262;6.802;2023-05-07T02:42:56;101279.97;;;17.32;68.60
79372;BME280;68914;51.262;6.802;2023-05-07T02:43:57;101277.06;;;17.33;68.35
79372;BME280;68914;51.262;6.802;2023-05-07T02:44:58;101279.38;;;17.30;67.92
79372;BME280;68914;51.262;6.802;2023-05-07T02:46:08;101279.16;;;17.31;68.31
79372;BME280;68914;51.262;6.802;2023-05-07T02:47:13;101282.66;;;17.32;68.26
79372;BME280;68914;51.262;6.802;2023-05-07T02:48:15;101277.88;;;17.34;68.17
79372;BME280;68914;51.262;6.802;2023-05-07T02:49:16;101279.97;;;17.32;68.28
79372;BME280;68914;51.262;6.802;2023-05-07T02:50:18;101280.34;;;17.35;68.07
79372;BME280;68914;51.262;6.802;2023-05-07T02:51:22;101279.88;;;17.38;68.11
79372;BME280;68914;51.262;6.802;2023-05-07T02:52:23;101272.09;;;17.37;68.09
79372;BME280;68914;51.262;6.802;2023-05-07T02:53:24;101280.91;;;17.37;68.22
79372;BME280;68914;51.262;6.802;2023-05-07T02:54:26;101280.53;;;17.34;68.17
79372;BME280;68914;51.262;6.802;2023-05-07T02:55:27;101276.72;;;17.30;67.89
79372;BME280;68914;51.262;6.802;2023-05-07T02:56:27;101281.38;;;17.23;68.10
79372;BME280;68914;51.262;6.802;2023-05-07T02:57:28;101285.31;;;17.32;68.33
79372;BME280;68914;51.262;6.802;2023-05-07T02:58:29;101284.06;;;17.34;67.94
79372;BME280;68914;51.262;6.802;2023-05-07T02:59:30;101281.16;;;17.36;67.80
79372;BME280;68914;51.262;6.802;2023-05-07T03:00:31;101286.47;;;17.36;67.97
79372;BME280;68914;51.262;6.802;2023-05-07T03:01:56;101287.53;;;17.35;67.82
79372;BME280;68914;51.262;6.802;2023-05-07T03:02:57;101288.19;;;17.30;68.33
79372;BME280;68914;51.262;6.802;2023-05-07T03:03:58;101290.63;;;17.32;67.90
79372;BME280;68914;51.262;6.802;2023-05-07T03:04:59;101287.38;;;17.30;67.82
79372;BME280;68914;51.262;6.802;2023-05-07T03:05:59;101283.69;;;17.31;68.01
79372;BME280;68914;51.262;6.802;2023-05-07T03:07:00;101292.25;;;17.33;67.86
79372;BME280;68914;51.262;6.802;2023-05-07T03:08:01;101291.34;;;17.27;67.60
79372;BME280;68914;51.262;6.802;2023-05-07T03:09:02;101291.56;;;17.26;68.21
79372;BME280;68914;51.262;6.802;2023-05-07T03:10:04;101289.94;;;17.25;68.17
79372;BME280;68914;51.262;6.802;2023-05-07T03:11:05;101275.34;;;17.27;68.06
79372;BME280;68914;51.262;6.802;2023-05-07T03:12:06;101297.03;;;17.31;67.80
79372;BME280;68914;51.262;6.802;2023-05-07T03:13:07;101286.47;;;17.36;67.57
79372;BME280;68914;51.262;6.802;2023-05-07T03:14:07;101291.44;;;17.32;67.46
79372;BME280;68914;51.262;6.802;2023-05-07T03:15:09;101290.75;;;17.37;67.37
79372;BME280;68914;51.262;6.802;2023-05-07T03:16:10;101294.22;;;17.37;67.66
79372;BME280;68914;51.262;6.802;2023-05-07T03:17:11;101294.72;;;17.34;67.45
79372;BME280;68914;51.262;6.802;2023-05-07T03:18:12;101291.22;;;17.34;67.46
79372;BME280;68914;51.262;6.802;2023-05-07T03:19:12;101283.81;;;17.36;67.52
79372;BME280;68914;51.262;6.802;2023-05-07T03:20:13;101283.69;;;17.31;67.54
79372;BME280;68914;51.262;6.802;2023-05-07T03:21:15;101284.97;;;17.28;67.70
79372;BME280;68914;51.262;6.802;2023-05-07T03:22:16;101275.91;;;17.29;67.38
79372;BME280;68914;51.262;6.802;2023-05-07T03:23:17;101281.59;;;17.21;67.68
79372;BME280;68914;51.262;6.802;2023-05-07T03:24:17;101274.31;;;16.86;69.15
79372;BME280;68914;51.262;6.802;2023-05-07T03:25:18;101272.41;;;17.05;68.40
79372;BME280;68914;51.262;6.802;2023-05-07T03:26:18;101270.09;;;17.09;68.09
79372;BME280;68914;51.262;6.802;2023-05-07T03:27:20;101266.97;;;17.12;68.07
79372;BME280;68914;51.262;6.802;2023-05-07T03:28:21;101270.56;;;17.17;68.05
79372;BME280;68914;51.262;6.802;2023-05-07T03:29:28;101266.19;;;17.11;67.99
79372;BME280;68914;51.262;6.802;2023-05-07T03:30:29;101265.59;;;17.21;67.85
79372;BME280;68914;51.262;6.802;2023-05-07T03:31:30;101264.53;;;17.22;67.37
79372;BME280;68914;51.262;6.802;2023-05-07T03:32:30;101262.81;;;17.28;67.44
79372;BME280;68914;51.262;6.802;2023-05-07T03:33:34;101257.72;;;17.26;67.48
79372;BME280;68914;51.262;6.802;2023-05-07T03:34:35;101264.91;;;17.26;67.33
79372;BME280;68914;51.262;6.802;2023-05-07T03:35:36;101264.91;;;17.26;67.16
79372;BME280;68914;51.262;6.802;2023-05-07T03:36:36;101274.28;;;17.28;67.28
79372;BME280;68914;51.262;6.802;2023-05-07T03:37:45;101272.19;;;17.30;67.29
79372;BME280;68914;51.262;6.802;2023-05-07T03:38:47;101271.97;;;17.32;67.36
79372;BME280;68914;51.262;6.802;2023-05-07T03:39:52;101276.25;;;17.33;67.34
79372;BME280;68914;51.262;6.802;2023-05-07T03:40:53;101266.06;;;17.30;67.31
79372;BME280;68914;51.262;6.802;2023-05-07T03:41:53;101268.84;;;17.23;67.42
79372;BME280;68914;51.262;6.802;2023-05-07T03:42:54;101272.22;;;17.18;67.72
79372;BME280;68914;51.262;6.802;2023-05-07T03:43:57;101270.34;;;17.19;67.83
79372;BME280;68914;51.262;6.802;2023-05-07T03:44:58;101271.97;;;17.20;67.68
79372;BME280;68914;51.262;6.802;2023-05-07T03:45:59;101273.84;;;17.19;67.79
79372;BME280;68914;51.262;6.802;2023-05-07T03:47:02;101274.53;;;17.27;67.37
79372;BME280;68914;51.262;6.802;2023-05-07T03:48:03;101263.72;;;17.21;67.42
79372;BME280;68914;51.262;6.802;2023-05-07T03:49:04;101272.44;;;17.29;67.37
79372;BME280;68914;51.262;6.802;2023-05-07T03:50:05;101268.63;;;17.25;67.30
79372;BME280;68914;51.262;6.802;2023-05-07T03:51:06;101267.44;;;17.20;67.59
79372;BME280;68914;51.262;6.802;2023-05-07T03:52:07;101269.88;;;17.22;67.27
79372;BME280;68914;51.262;6.802;2023-05-07T03:53:08;101270.22;;;17.26;67.47
79372;BME280;68914;51.262;6.802;2023-05-07T03:54:12;101271.88;;;17.27;67.21
79372;BME280;68914;51.262;6.802;2023-05-07T03:55:17;101271.88;;;17.27;67.15
79372;BME280;68914;51.262;6.802;2023-05-07T03:56:23;101272.19;;;17.30;66.77
79372;BME280;68914;51.262;6.802;2023-05-07T03:57:28;101279.38;;;17.30;67.01
79372;BME280;68914;51.262;6.802;2023-05-07T03:58:30;101278.38;;;17.31;66.92
79372;BME280;68914;51.262;6.802;2023-05-07T03:59:33;101278.81;;;17.28;66.97
79372;BME280;68914;51.262;6.802;2023-05-07T04:00:34;101282.75;;;17.25;67.09
79372;BME280;68914;51.262;6.802;2023-05-07T04:01:44;101285.19;;;17.27;66.87
79372;BME280;68914;51.262;6.802;2023-05-07T04:02:49;101284.25;;;17.33;66.91
79372;BME280;68914;51.262;6.802;2023-05-07T04:03:56;101284.84;;;17.35;66.83
79372;BME280;68914;51.262;6.802;2023-05-07T04:04:57;101284.84;;;17.35;66.87
79372;BME280;68914;51.262;6.802;2023-05-07T04:05:59;101290.75;;;17.37;66.69
79372;BME280;68914;51.262;6.802;2023-05-07T04:06:59;101285.66;;;17.35;66.87
79372;BME280;68914;51.262;6.802;2023-05-07T04:08:01;101284.06;;;17.34;66.78
79372;BME280;68914;51.262;6.802;2023-05-07T04:09:10;101293.41;;;17.37;66.64
79372;BME280;68914;51.262;6.802;2023-05-07T04:10:12;101287.63;;;17.40;66.41
79372;BME280;68914;51.262;6.802;2023-05-07T04:11:15;101286.13;;;17.32;66.58
79372;BME280;68914;51.262;6.802;2023-05-07T04:12:16;101283.09;;;17.29;66.11
79372;BME280;68914;51.262;6.802;2023-05-07T04:13:16;101290.03;;;17.30;66.27
79372;BME280;68914;51.262;6.802;2023-05-07T04:14:17;101290.88;;;17.18;66.52
79372;BME280;68914;51.262;6.802;2023-05-07T04:15:18;101287.16;;;17.19;66.88
79372;BME280;68914;51.262;6.802;2023-05-07T04:16:18;101290.25;;;17.05;67.57
79372;BME280;68914;51.262;6.802;2023-05-07T04:17:19;101291.31;;;17.15;66.88
79372;BME280;68914;51.262;6.802;2023-05-07T04:18:20;101287.25;;;17.13;66.91
79372;BME280;68914;51.262;6.802;2023-05-07T04:19:22;101291.66;;;17.07;67.34
79372;BME280;68914;51.262;6.802;2023-05-07T04:20:26;101291.97;;;16.99;67.50
79372;BME280;68914;51.262;6.802;2023-05-07T04:21:33;101292.34;;;17.03;67.66
79372;BME280;68914;51.262;6.802;2023-05-07T04:22:34;101289.13;;;17.24;66.64
79372;BME280;68914;51.262;6.802;2023-05-07T04:23:35;101287.88;;;17.27;66.26
79372;BME280;68914;51.262;6.802;2023-05-07T04:24:38;101295.25;;;17.25;66.45
79372;BME280;68914;51.262;6.802;2023-05-07T04:25:39;101289.25;;;17.29;66.19
79372;BME280;68914;51.262;6.802;2023-05-07T04:26:51;101296.53;;;17.34;66.26
79372;BME280;68914;51.262;6.802;2023-05-07T04:27:54;101292.25;;;17.44;66.07
79372;BME280;68914;51.262;6.802;2023-05-07T04:28:56;101294.22;;;17.49;65.95
79372;BME280;68914;51.262;6.802;2023-05-07T04:29:58;101292.03;;;17.46;66.25
79372;BME280;68914;51.262;6.802;2023-05-07T04:31:02;101295.28;;;17.60;65.94
79372;BME280;68914;51.262;6.802;2023-05-07T04:32:04;101293.88;;;17.45;66.30
79372;BME280;68914;51.262;6.802;2023-05-07T04:33:05;101290.75;;;17.37;66.50
79372;BME280;68914;51.262;6.802;2023-05-07T04:34:07;101298.28;;;17.40;66.66
79372;BME280;68914;51.262;6.802;2023-05-07T04:35:09;101299.47;;;17.44;66.51
79372;BME280;68914;51.262;6.802;2023-05-07T04:36:10;101297.59;;;17.56;66.20
79372;BME280;68914;51.262;6.802;2023-05-07T04:37:18;101296.34;;;17.59;66.15
79372;BME280;68914;51.262;6.802;2023-05-07T04:38:19;101297.50;;;17.51;66.36
79372;BME280;68914;51.262;6.802;2023-05-07T04:39:21;101293.22;;;17.50;66.41
79372;BME280;68914;51.262;6.802;2023-05-07T04:40:23;101289.59;;;17.56;66.30
79372;BME280;68914;51.262;6.802;2023-05-07T04:41:23;101297.38;;;17.58;66.25
79372;BME280;68914;51.262;6.802;2023-05-07T04:42:24;101296.19;;;17.54;66.40
79372;BME280;68914;51.262;6.802;2023-05-07T04:43:25;101299.13;;;17.52;66.70
79372;BME280;68914;51.262;6.802;2023-05-07T04:44:26;101293.53;;;17.54;66.55
79372;BME280;68914;51.262;6.802;2023-05-07T04:45:26;101293.44;;;17.49;66.69
79372;BME280;68914;51.262;6.802;2023-05-07T04:46:29;101295.75;;;17.45;66.88
79372;BME280;68914;51.262;6.802;2023-05-07T04:47:31;101286.59;;;17.53;66.70
79372;BME280;68914;51.262;6.802;2023-05-07T04:48:32;101290.66;;;17.55;66.54
79372;BME280;68914;51.262;6.802;2023-05-07T04:49:34;101285.78;;;17.52;66.45
79372;BME280;68914;51.262;6.802;2023-05-07T04:50:35;101287.19;;;17.55;66.62
79372;BME280;68914;51.262;6.802;2023-05-07T04:51:37;101291.72;;;17.66;65.90
79372;BME280;68914;51.262;6.802;2023-05-07T04:52:39;101294.84;;;17.75;65.77
79372;BME280;68914;51.262;6.802;2023-05-07T04:53:40;101295.84;;;17.74;65.92
79372;BME280;68914;51.262;6.802;2023-05-07T04:54:41;101296.09;;;17.72;65.92
79372;BME280;68914;51.262;6.802;2023-05-07T04:55:42;101298.44;;;17.80;65.64
79372;BME280;68914;51.262;6.802;2023-05-07T04:56:43;101295.31;;;17.83;65.60
79372;BME280;68914;51.262;6.802;2023-05-07T04:57:44;101297.50;;;17.86;65.78
79372;BME280;68914;51.262;6.802;2023-05-07T04:58:47;101297.63;;;17.80;65.78
79372;BME280;68914;51.262;6.802;2023-05-07T04:59:50;101287.66;;;17.87;65.53
79372;BME280;68914;51.262;6.802;2023-05-07T05:00:51;101294.13;;;17.91;65.70
79372;BME280;68914;51.262;6.802;2023-05-07T05:01:52;101296.91;;;17.96;65.59
79372;BME280;68914;51.262;6.802;2023-05-07T05:02:52;101296.44;;;17.99;65.51
79372;BME280;68914;51.262;6.802;2023-05-07T05:03:55;101299.22;;;18.04;65.23
79372;BME280;68914;51.262;6.802;2023-05-07T05:04:56;101296.63;;;18.09;65.44
79372;BME280;68914;51.262;6.802;2023-05-07T05:05:57;101299.19;;;18.16;64.98
79372;BME280;68914;51.262;6.802;2023-05-07T05:07:02;101306.28;;;18.22;64.94
79372;BME280;68914;51.262;6.802;2023-05-07T05:08:04;101301.63;;;18.17;65.32
79372;BME280;68914;51.262;6.802;2023-05-07T05:09:06;101307.53;;;18.19;65.03
79372;BME280;68914;51.262;6.802;2023-05-07T05:10:07;101301.84;;;18.16;65.17
79372;BME280;68914;51.262;6.802;2023-05-07T05:11:11;101299.19;;;18.16;65.09
79372;BME280;68914;51.262;6.802;2023-05-07T05:12:12;101298.97;;;18.17;65.36
79372;BME280;68914;51.262;6.802;2023-05-07T05:13:13;101306.97;;;18.17;65.40
79372;BME280;68914;51.262;6.802;2023-05-07T05:14:14;101309.97;;;18.21;65.41
79372;BME280;68914;51.262;6.802;2023-05-07T05:15:15;101306.28;;;18.22;64.86
79372;BME280;68914;51.262;6.802;2023-05-07T05:16:16;101302.28;;;18.25;65.15
79372;BME280;68914;51.262;6.802;2023-05-07T05:17:17;101306.81;;;18.24;65.07
79372;BME280;68914;51.262;6.802;2023-05-07T05:18:18;101304.50;;;18.28;64.93
79372;BME280;68914;51.262;6.802;2023-05-07T05:19:19;101310.22;;;18.19;65.14
79372;BME280;68914;51.262;6.802;2023-05-07T05:20:19;101312.28;;;18.29;64.99
79372;BME280;68914;51.262;6.802;2023-05-07T05:21:22;101313.75;;;18.37;64.78
79372;BME280;68914;51.262;6.802;2023-05-07T05:22:26;101307.22;;;18.44;64.63
79372;BME280;68914;51.262;6.802;2023-05-07T05:23:30;101308.97;;;18.51;64.59